Time,TemperatureF,DewpointF,PressureIn,WindDirection,WindDirectionDegrees,WindSpeedMPH,WindSpeedGustMPH,Humidity,HourlyPrecipIn,Conditions,Clouds,dailyrainin,SolarRadiationWatts/m^2,SoftwareType,DateUTC
2013-04-19 00:12:00,49.0,42.0,-100.00,ESE,112,2.0,5.0,77,0.00,,,-99.99,0.000000,,2013-04-19 07:12:00,
2013-04-19 00:21:00,49.0,42.0,-100.00,ESE,112,2.0,5.0,77,0.00,,,-99.99,0.000000,,2013-04-19 07:21:00,
2013-04-19 00:31:00,49.0,42.0,-100.00,ESE,112,2.0,5.0,77,0.00,,,-99.99,0.000000,,2013-04-19 07:31:00,
2013-04-19 00:42:00,49.0,42.0,-100.00,ESE,112,2.0,5.0,77,0.00,,,-99.99,0.000000,,2013-04-19 07:42:00,
2013-04-19 00:50:00,47.0,42.0,-100.00,East,95,3.0,5.0,84,0.00,,,0.00,0.000000,,2013-04-19 07:50:00,
2013-04-19 01:21:00,47.0,42.0,-100.00,East,95,3.0,5.0,84,0.00,,,0.00,0.000000,,2013-04-19 08:21:00,
2013-04-19 01:32:00,47.0,42.0,-100.00,East,95,3.0,5.0,84,0.00,,,0.00,0.000000,,2013-04-19 08:32:00,
2013-04-19 01:42:00,47.0,42.0,-100.00,East,95,3.0,5.0,84,0.00,,,0.00,0.000000,,2013-04-19 08:42:00,
2013-04-19 01:50:00,45.0,41.0,-100.00,ESE,111,4.0,6.0,86,0.00,,,0.00,0.000000,,2013-04-19 08:50:00,
2013-04-19 02:11:00,45.0,41.0,-100.00,ESE,111,4.0,6.0,86,0.00,,,0.00,0.000000,,2013-04-19 09:11:00,
2013-04-19 02:21:00,45.0,41.0,-100.00,ESE,111,4.0,6.0,86,0.00,,,0.00,0.000000,,2013-04-19 09:21:00,
2013-04-19 02:32:00,45.0,41.0,-100.00,ESE,111,4.0,6.0,86,0.00,,,0.00,0.000000,,2013-04-19 09:32:00,
2013-04-19 02:42:00,45.0,41.0,-100.00,ESE,111,4.0,6.0,86,0.00,,,0.00,0.000000,,2013-04-19 09:42:00,
2013-04-19 02:50:00,45.0,43.0,-100.00,NE,41,1.0,4.0,91,0.00,,,0.00,0.000000,,2013-04-19 09:50:00,
2013-04-19 03:13:00,45.0,43.0,-100.00,NE,41,1.0,4.0,91,0.00,,,0.00,0.000000,,2013-04-19 10:13:00,
2013-04-19 03:23:00,45.0,43.0,-100.00,NE,41,1.0,4.0,91,0.00,,,0.00,0.000000,,2013-04-19 10:23:00,
2013-04-19 03:33:00,45.0,43.0,-100.00,NE,41,1.0,4.0,91,0.00,,,0.00,0.000000,,2013-04-19 10:33:00,
2013-04-19 03:42:00,45.0,43.0,-100.00,NE,41,1.0,4.0,91,0.00,,,0.00,0.000000,,2013-04-19 10:42:00,
2013-04-19 03:50:00,44.0,42.0,-100.00,North,359,0.0,6.0,92,0.00,,,0.00,0.000000,,2013-04-19 10:50:00,
2013-04-19 04:11:00,44.0,42.0,-100.00,North,359,0.0,6.0,92,0.00,,,0.00,0.000000,,2013-04-19 11:11:00,
2013-04-19 04:22:00,44.0,42.0,-100.00,North,359,0.0,6.0,92,0.00,,,0.00,0.000000,,2013-04-19 11:22:00,
2013-04-19 04:32:00,44.0,42.0,-100.00,North,359,0.0,6.0,92,0.00,,,0.00,0.000000,,2013-04-19 11:32:00,
2013-04-19 04:42:00,44.0,42.0,-100.00,North,359,0.0,6.0,92,0.00,,,0.00,0.000000,,2013-04-19 11:42:00,
2013-04-19 04:50:00,43.0,41.0,-100.00,SE,125,1.0,5.0,93,0.00,,,0.00,0.000000,,2013-04-19 11:50:00,
2013-04-19 05:12:00,43.0,41.0,-100.00,SE,125,1.0,5.0,93,0.00,,,0.00,0.000000,,2013-04-19 12:12:00,
2013-04-19 05:22:00,43.0,41.0,-100.00,SE,125,1.0,5.0,93,0.00,,,0.00,0.000000,,2013-04-19 12:22:00,
2013-04-19 05:32:00,43.0,41.0,-100.00,SE,125,1.0,5.0,93,0.00,,,0.00,0.000000,,2013-04-19 12:32:00,
2013-04-19 05:42:00,43.0,41.0,-100.00,SE,125,1.0,5.0,93,0.00,,,0.00,0.000000,,2013-04-19 12:42:00,
2013-04-19 05:50:00,42.0,40.0,-100.00,SE,127,2.0,6.0,94,0.00,,,0.00,1.000000,,2013-04-19 12:50:00,
2013-04-19 06:11:00,42.0,40.0,-100.00,SE,127,2.0,6.0,94,0.00,,,0.00,1.000000,,2013-04-19 13:11:00,
2013-04-19 06:21:00,42.0,40.0,-100.00,SE,127,2.0,6.0,94,0.00,,,0.00,1.000000,,2013-04-19 13:21:00,
2013-04-19 06:32:00,42.0,40.0,-100.00,SE,127,2.0,6.0,94,0.00,,,0.00,1.000000,,2013-04-19 13:32:00,
2013-04-19 06:42:00,42.0,40.0,-100.00,SE,127,2.0,6.0,94,0.00,,,0.00,1.000000,,2013-04-19 13:42:00,
2013-04-19 06:50:00,42.0,41.0,-100.00,WSW,258,0.0,5.0,95,0.00,,,0.00,3.000000,,2013-04-19 13:50:00,
2013-04-19 07:11:00,42.0,41.0,-100.00,WSW,258,0.0,5.0,95,0.00,,,0.00,3.000000,,2013-04-19 14:11:00,
2013-04-19 07:21:00,42.0,41.0,-100.00,WSW,258,0.0,5.0,95,0.00,,,0.00,3.000000,,2013-04-19 14:21:00,
2013-04-19 07:32:00,42.0,41.0,-100.00,WSW,258,0.0,5.0,95,0.00,,,0.00,3.000000,,2013-04-19 14:32:00,
2013-04-19 07:42:00,42.0,41.0,-100.00,WSW,258,0.0,5.0,95,0.00,,,0.00,3.000000,,2013-04-19 14:42:00,
2013-04-19 07:50:00,42.0,41.0,-100.00,ENE,64,1.0,6.0,95,0.00,,,0.00,57.000000,,2013-04-19 14:50:00,
2013-04-19 08:12:00,42.0,41.0,-100.00,ENE,64,1.0,6.0,95,0.00,,,0.00,57.000000,,2013-04-19 15:12:00,
2013-04-19 08:21:00,42.0,41.0,-100.00,ENE,64,1.0,6.0,95,0.00,,,0.00,57.000000,,2013-04-19 15:21:00,
2013-04-19 08:33:00,42.0,41.0,-100.00,ENE,64,1.0,6.0,95,0.00,,,0.00,57.000000,,2013-04-19 15:33:00,
2013-04-19 08:43:00,42.0,41.0,-100.00,ENE,64,1.0,6.0,95,0.00,,,0.00,57.000000,,2013-04-19 15:43:00,
2013-04-19 08:50:00,47.0,45.0,-100.00,West,276,1.0,4.0,93,0.00,,,0.00,212.000000,,2013-04-19 15:50:00,
2013-04-19 09:12:00,47.0,45.0,-100.00,West,276,1.0,4.0,93,0.00,,,0.00,212.000000,,2013-04-19 16:12:00,
2013-04-19 09:23:00,47.0,45.0,-100.00,West,276,1.0,4.0,93,0.00,,,0.00,212.000000,,2013-04-19 16:23:00,
2013-04-19 09:32:00,47.0,45.0,-100.00,West,276,1.0,4.0,93,0.00,,,0.00,212.000000,,2013-04-19 16:32:00,
2013-04-19 09:42:00,47.0,45.0,-100.00,West,276,1.0,4.0,93,0.00,,,0.00,212.000000,,2013-04-19 16:42:00,
2013-04-19 09:50:00,55.0,48.0,-100.00,NNW,327,5.0,8.0,78,-99.99,,,0.00,485.000000,,2013-04-19 16:50:00,
2013-04-19 10:12:00,55.0,48.0,-100.00,NNW,327,5.0,8.0,78,-99.99,,,0.00,485.000000,,2013-04-19 17:12:00,
2013-04-19 10:21:00,55.0,48.0,-100.00,NNW,327,5.0,8.0,78,-99.99,,,0.00,485.000000,,2013-04-19 17:21:00,
2013-04-19 10:32:00,55.0,48.0,-100.00,NNW,327,5.0,8.0,78,-99.99,,,0.00,485.000000,,2013-04-19 17:32:00,
2013-04-19 10:42:00,55.0,48.0,-100.00,NNW,327,5.0,8.0,78,-99.99,,,0.00,485.000000,,2013-04-19 17:42:00,
2013-04-19 10:50:00,60.0,48.0,-100.00,NW,324,7.0,10.0,65,0.00,,,0.00,653.000000,,2013-04-19 17:50:00,
2013-04-19 11:13:00,60.0,48.0,-100.00,NW,324,7.0,10.0,65,0.00,,,0.00,653.000000,,2013-04-19 18:13:00,
2013-04-19 11:22:00,60.0,48.0,-100.00,NW,324,7.0,10.0,65,0.00,,,0.00,653.000000,,2013-04-19 18:22:00,
2013-04-19 11:33:00,60.0,48.0,-100.00,NW,324,7.0,10.0,65,0.00,,,0.00,653.000000,,2013-04-19 18:33:00,
2013-04-19 11:42:00,60.0,48.0,-100.00,NW,324,7.0,10.0,65,0.00,,,0.00,653.000000,,2013-04-19 18:42:00,
2013-04-19 11:50:00,66.0,50.0,-100.00,North,354,6.0,12.0,57,-99.99,,,0.00,797.000000,,2013-04-19 18:50:00,
2013-04-19 12:11:00,66.0,50.0,-100.00,North,354,6.0,12.0,57,-99.99,,,0.00,797.000000,,2013-04-19 19:11:00,
2013-04-19 12:21:00,66.0,50.0,-100.00,North,354,6.0,12.0,57,-99.99,,,0.00,797.000000,,2013-04-19 19:21:00,
2013-04-19 12:32:00,66.0,50.0,-100.00,North,354,6.0,12.0,57,-99.99,,,0.00,797.000000,,2013-04-19 19:32:00,
2013-04-19 12:41:00,66.0,50.0,-100.00,North,354,6.0,12.0,57,-99.99,,,0.00,797.000000,,2013-04-19 19:41:00,
2013-04-19 12:50:00,71.0,50.0,-100.00,NW,326,11.0,15.0,47,0.00,,,0.00,880.000000,,2013-04-19 19:50:00,
2013-04-19 13:11:00,71.0,50.0,-100.00,NW,326,11.0,15.0,47,0.00,,,0.00,880.000000,,2013-04-19 20:11:00,
2013-04-19 13:22:00,71.0,50.0,-100.00,NW,326,11.0,15.0,47,0.00,,,0.00,880.000000,,2013-04-19 20:22:00,
2013-04-19 13:32:00,71.0,50.0,-100.00,NW,326,11.0,15.0,47,0.00,,,0.00,880.000000,,2013-04-19 20:32:00,
2013-04-19 13:41:00,71.0,50.0,-100.00,NW,326,11.0,15.0,47,0.00,,,0.00,880.000000,,2013-04-19 20:41:00,
2013-04-19 13:50:00,73.0,48.0,-100.00,WNW,302,16.0,23.0,41,0.00,,,-99.99,897.000000,,2013-04-19 20:50:00,
2013-04-19 14:21:00,73.0,48.0,-100.00,WNW,302,16.0,23.0,41,0.00,,,-99.99,897.000000,,2013-04-19 21:21:00,
2013-04-19 14:32:00,73.0,48.0,-100.00,WNW,302,16.0,23.0,41,0.00,,,-99.99,897.000000,,2013-04-19 21:32:00,
2013-04-19 14:42:00,73.0,48.0,-100.00,WNW,302,16.0,23.0,41,0.00,,,-99.99,897.000000,,2013-04-19 21:42:00,
2013-04-19 14:50:00,73.0,47.0,-100.00,WNW,303,16.0,25.0,40,0.00,,,0.00,862.000000,,2013-04-19 21:50:00,
2013-04-19 15:22:00,73.0,47.0,-100.00,WNW,303,16.0,25.0,40,0.00,,,0.00,862.000000,,2013-04-19 22:22:00,
2013-04-19 15:33:00,73.0,47.0,-100.00,WNW,303,16.0,25.0,40,0.00,,,0.00,862.000000,,2013-04-19 22:33:00,
2013-04-19 15:42:00,73.0,47.0,-100.00,WNW,303,16.0,25.0,40,0.00,,,0.00,862.000000,,2013-04-19 22:42:00,
2013-04-19 15:50:00,73.0,45.0,-100.00,NW,310,17.0,26.0,37,0.00,,,0.00,773.000000,,2013-04-19 22:50:00,
2013-04-19 16:11:00,73.0,45.0,-100.00,NW,310,17.0,26.0,37,0.00,,,0.00,773.000000,,2013-04-19 23:11:00,
2013-04-19 16:22:00,73.0,45.0,-100.00,NW,310,17.0,26.0,37,0.00,,,0.00,773.000000,,2013-04-19 23:22:00,
2013-04-19 16:32:00,73.0,45.0,-100.00,NW,310,17.0,26.0,37,0.00,,,0.00,773.000000,,2013-04-19 23:32:00,
2013-04-19 16:42:00,73.0,45.0,-100.00,NW,310,17.0,26.0,37,0.00,,,0.00,773.000000,,2013-04-19 23:42:00,
2013-04-19 16:50:00,70.0,45.0,-100.00,NW,310,17.0,27.0,41,0.00,,,0.00,630.000000,,2013-04-19 23:50:00,
2013-04-19 17:12:00,70.0,45.0,-100.00,NW,310,17.0,27.0,41,0.00,,,0.00,630.000000,,2013-04-20 00:12:00,
2013-04-19 17:21:00,70.0,45.0,-100.00,NW,310,17.0,27.0,41,0.00,,,0.00,630.000000,,2013-04-20 00:21:00,
2013-04-19 17:32:00,70.0,45.0,-100.00,NW,310,17.0,27.0,41,0.00,,,0.00,630.000000,,2013-04-20 00:32:00,
2013-04-19 17:41:00,70.0,45.0,-100.00,NW,310,17.0,27.0,41,0.00,,,0.00,630.000000,,2013-04-20 00:41:00,
2013-04-19 17:50:00,68.0,47.0,-100.00,NW,311,17.0,26.0,47,0.00,,,0.00,455.000000,,2013-04-20 00:50:00,
2013-04-19 18:11:00,68.0,47.0,-100.00,NW,311,17.0,26.0,47,0.00,,,0.00,455.000000,,2013-04-20 01:11:00,
2013-04-19 18:21:00,68.0,47.0,-100.00,NW,311,17.0,26.0,47,0.00,,,0.00,455.000000,,2013-04-20 01:21:00,
2013-04-19 18:32:00,68.0,47.0,-100.00,NW,311,17.0,26.0,47,0.00,,,0.00,455.000000,,2013-04-20 01:32:00,
2013-04-19 18:42:00,68.0,47.0,-100.00,NW,311,17.0,26.0,47,0.00,,,0.00,455.000000,,2013-04-20 01:42:00,
2013-04-19 18:50:00,64.0,47.0,-100.00,WNW,300,13.0,23.0,54,0.00,,,0.00,260.000000,,2013-04-20 01:50:00,
2013-04-19 19:11:00,64.0,47.0,-100.00,WNW,300,13.0,23.0,54,0.00,,,0.00,260.000000,,2013-04-20 02:11:00,
2013-04-19 19:21:00,64.0,47.0,-100.00,WNW,300,13.0,23.0,54,0.00,,,0.00,260.000000,,2013-04-20 02:21:00,
2013-04-19 19:32:00,64.0,47.0,-100.00,WNW,300,13.0,23.0,54,0.00,,,0.00,260.000000,,2013-04-20 02:32:00,
2013-04-19 19:42:00,64.0,47.0,-100.00,WNW,300,13.0,23.0,54,0.00,,,0.00,260.000000,,2013-04-20 02:42:00,
2013-04-19 19:50:00,59.0,46.0,-100.00,NW,315,8.0,20.0,61,0.00,,,0.00,75.000000,,2013-04-20 02:50:00,
2013-04-19 20:21:00,59.0,46.0,-100.00,NW,315,8.0,20.0,61,0.00,,,0.00,75.000000,,2013-04-20 03:21:00,
2013-04-19 20:33:00,59.0,46.0,-100.00,NW,315,8.0,20.0,61,0.00,,,0.00,75.000000,,2013-04-20 03:33:00,
2013-04-19 20:43:00,59.0,46.0,-100.00,NW,315,8.0,20.0,61,0.00,,,0.00,75.000000,,2013-04-20 03:43:00,
2013-04-19 20:50:00,56.0,45.0,-100.00,NW,314,9.0,16.0,67,0.00,,,0.00,2.000000,,2013-04-20 03:50:00,
2013-04-19 21:23:00,56.0,45.0,-100.00,NW,314,9.0,16.0,67,0.00,,,0.00,2.000000,,2013-04-20 04:23:00,
2013-04-19 21:32:00,56.0,45.0,-100.00,NW,314,9.0,16.0,67,0.00,,,0.00,2.000000,,2013-04-20 04:32:00,
2013-04-19 21:42:00,56.0,45.0,-100.00,NW,314,9.0,16.0,67,0.00,,,0.00,2.000000,,2013-04-20 04:42:00,
2013-04-19 21:50:00,53.0,44.0,-100.00,NNW,333,8.0,14.0,71,0.00,,,0.00,0.000000,,2013-04-20 04:50:00,
2013-04-19 22:12:00,53.0,44.0,-100.00,NNW,333,8.0,14.0,71,0.00,,,0.00,0.000000,,2013-04-20 05:12:00,
2013-04-19 22:21:00,53.0,44.0,-100.00,NNW,333,8.0,14.0,71,0.00,,,0.00,0.000000,,2013-04-20 05:21:00,
2013-04-19 22:32:00,53.0,44.0,-100.00,NNW,333,8.0,14.0,71,0.00,,,0.00,0.000000,,2013-04-20 05:32:00,
2013-04-19 22:42:00,53.0,44.0,-100.00,NNW,333,8.0,14.0,71,0.00,,,0.00,0.000000,,2013-04-20 05:42:00,
2013-04-19 22:50:00,50.0,44.0,-100.00,NNE,13,6.0,11.0,80,0.00,,,0.00,0.000000,,2013-04-20 05:50:00,
2013-04-19 23:12:00,50.0,44.0,-100.00,NNE,13,6.0,11.0,80,0.00,,,0.00,0.000000,,2013-04-20 06:12:00,
2013-04-19 23:21:00,50.0,44.0,-100.00,NNE,13,6.0,11.0,80,0.00,,,0.00,0.000000,,2013-04-20 06:21:00,
2013-04-19 23:31:00,50.0,44.0,-100.00,NNE,13,6.0,11.0,80,0.00,,,0.00,0.000000,,2013-04-20 06:31:00,
2013-04-19 23:42:00,50.0,44.0,-100.00,NNE,13,6.0,11.0,80,0.00,,,0.00,0.000000,,2013-04-20 06:42:00,
2013-04-19 23:50:00,48.0,44.0,-100.00,WNW,291,4.0,9.0,85,0.00,,,0.00,0.000000,,2013-04-20 06:50:00,